Time;durP1;ratioP1;P1;durP2;ratioP2;P2;SDS_P1;SDS_P2;PMS_P1;PMS_P2;Temp;Humidity;BMP_temperature;BMP_pressure;BME280_temperature;BME280_humidity;BME280_pressure;Samples;Min_cycle;Max_cycle;Signal;HPM_P1;HPM_P2
2023/01/15 00:01:20;;;;;;;;;0.00;0.00;;;;;7.79;70.35;99679.38;5011220;28;10270;-68
2023/01/15 00:03:47;;;;;;;;;0.00;0.00;;;;;7.76;70.46;99679.78;5013548;28;10409;-69
2023/01/15 00:06:19;;;;;;;;;1.00;1.00;;;;;7.78;70.39;99681.22;5026709;28;10415;-69
2023/01/15 00:08:46;;;;;;;;;0.25;0.25;;;;;7.75;70.33;99672.78;5017278;28;10448;-68
2023/01/15 00:11:14;;;;;;;;;0.50;0.00;;;;;7.78;69.48;99675.00;5015822;28;10382;-68
2023/01/15 00:13:41;;;;;;;;;1.00;1.00;;;;;7.77;70.07;99674.19;5011057;28;10302;-68
2023/01/15 00:16:10;;;;;;;;;0.00;0.00;;;;;7.83;70.55;99668.03;5020114;28;11183;-67
2023/01/15 00:18:37;;;;;;;;;2.00;2.00;;;;;7.84;69.96;99669.66;5020739;28;10364;-67
2023/01/15 00:21:07;;;;;;;;;1.75;0.00;;;;;7.82;70.26;99673.56;5024117;28;10457;-67
2023/01/15 00:29:13;;;;;;;;;0.00;0.00;;;;;7.75;69.74;99680.81;5039629;28;10266;-68
2023/01/15 00:31:43;;;;;;;;;0.00;0.00;;;;;7.76;69.66;99672.56;5010326;28;10580;-69
2023/01/15 00:34:09;;;;;;;;;0.75;0.50;;;;;7.71;69.17;99664.31;5013248;28;10514;-68
2023/01/15 00:36:36;;;;;;;;;0.00;0.00;;;;;7.72;69.64;99667.81;5022317;28;10290;-67
2023/01/15 00:39:05;;;;;;;;;1.00;1.00;;;;;7.61;68.48;99663.88;5026538;28;10307;-69
2023/01/15 00:41:32;;;;;;;;;1.75;0.00;;;;;7.65;69.17;99655.22;5020206;28;10316;-68
2023/01/15 00:43:58;;;;;;;;;1.00;1.00;;;;;7.68;69.13;99657.50;5014851;28;10362;-68
2023/01/15 00:46:25;;;;;;;;;4.25;1.00;;;;;7.67;68.40;99650.50;5045650;28;10360;-69
2023/01/15 00:48:51;;;;;;;;;1.00;1.00;;;;;7.62;68.55;99661.00;5020860;28;10473;-69
2023/01/15 00:51:17;;;;;;;;;4.00;1.25;;;;;7.64;67.89;99660.78;5027170;28;11100;-68
2023/01/15 00:53:44;;;;;;;;;0.00;0.00;;;;;7.59;68.40;99655.22;5021592;28;11163;-68
2023/01/15 00:56:10;;;;;;;;;0.00;0.00;;;;;7.61;68.67;99648.63;5019733;28;11253;-67
2023/01/15 00:58:37;;;;;;;;;0.00;0.00;;;;;7.51;68.18;99658.09;5026252;28;11520;-70
2023/01/15 01:01:03;;;;;;;;;1.50;0.00;;;;;7.49;68.01;99658.28;5028468;28;10483;-68
2023/01/15 01:03:30;;;;;;;;;0.25;0.25;;;;;7.43;68.28;99651.91;5024351;28;10455;-66
2023/01/15 01:06:01;;;;;;;;;1.00;1.00;;;;;7.46;68.29;99658.72;5027348;28;10590;-67
2023/01/15 01:08:28;;;;;;;;;0.00;0.00;;;;;7.50;67.30;99651.94;5046290;28;10437;-68
2023/01/15 01:11:09;;;;;;;;;2.00;1.25;;;;;7.47;68.23;99662.22;5014287;28;10574;-67
2023/01/15 01:13:36;;;;;;;;;2.00;1.00;;;;;7.42;67.15;99658.28;5025570;28;11241;-68
2023/01/15 01:16:04;;;;;;;;;0.00;0.00;;;;;7.54;67.43;99668.41;5026102;28;11071;-68
2023/01/15 01:18:31;;;;;;;;;0.00;0.00;;;;;7.59;67.13;99665.94;5048113;28;11144;-65
2023/01/15 01:20:57;;;;;;;;;4.50;2.00;;;;;7.57;67.15;99673.34;5029216;28;10379;-68
2023/01/15 01:23:24;;;;;;;;;5.00;2.00;;;;;7.55;67.51;99678.09;5023162;28;10636;-70
2023/01/15 01:25:50;;;;;;;;;0.00;0.00;;;;;7.49;66.87;99673.53;5032743;28;10447;-65
2023/01/15 01:28:16;;;;;;;;;1.00;1.00;;;;;7.46;66.88;99673.97;5016460;28;10680;-66
2023/01/15 01:30:43;;;;;;;;;2.00;1.00;;;;;7.50;67.35;99680.56;5028913;28;10341;-66
2023/01/15 01:33:10;;;;;;;;;0.00;0.00;;;;;7.54;67.07;99669.25;5026808;28;10491;-63
2023/01/15 01:35:36;;;;;;;;;1.75;1.00;;;;;7.48;67.34;99674.56;5042780;28;10641;-64
2023/01/15 01:38:03;;;;;;;;;0.50;0.50;;;;;7.52;66.43;99681.16;5020714;28;10446;-66
2023/01/15 01:40:29;;;;;;;;;1.00;0.00;;;;;7.44;67.15;99685.69;5034413;28;10698;-67
2023/01/15 01:42:55;;;;;;;;;0.00;0.00;;;;;7.46;67.10;99680.13;5031134;28;10675;-68
2023/01/15 01:45:31;;;;;;;;;2.75;0.75;;;;;7.47;66.93;99694.34;5032152;28;10678;-68
2023/01/15 01:48:05;;;;;;;;;3.50;1.00;;;;;7.43;67.90;99699.28;5021591;28;10649;-68
2023/01/15 01:50:35;;;;;;;;;4.00;0.00;;;;;7.45;66.71;99686.50;5018583;28;10521;-67
2023/01/15 01:53:16;;;;;;;;;0.00;0.00;;;;;7.48;66.94;99690.63;5023105;28;10579;-68
2023/01/15 01:55:43;;;;;;;;;1.00;1.00;;;;;7.53;66.29;99688.16;5048027;28;10590;-67
2023/01/15 01:58:11;;;;;;;;;4.00;1.00;;;;;7.58;66.91;99677.69;5026918;28;10668;-67
2023/01/15 02:00:43;;;;;;;;;0.25;0.00;;;;;7.60;66.85;99676.44;5039043;28;10432;-68
2023/01/15 02:03:10;;;;;;;;;7.00;0.00;;;;;7.53;67.11;99670.25;5031308;28;10538;-68
2023/01/15 02:05:47;;;;;;;;;0.00;0.00;;;;;7.49;67.02;99689.59;5027004;28;10375;-66
2023/01/15 02:08:14;;;;;;;;;0.00;0.00;;;;;7.52;66.78;99690.03;5032301;28;11374;-67
2023/01/15 02:10:41;;;;;;;;;0.00;0.00;;;;;7.61;66.83;99680.75;5027115;28;10397;-67
2023/01/15 02:13:29;;;;;;;;;0.00;0.00;;;;;7.54;66.92;99684.47;5023372;28;10606;-66
2023/01/15 02:16:17;;;;;;;;;0.00;0.00;;;;;7.54;66.15;99692.53;5013111;28;10469;-66
2023/01/15 02:19:03;;;;;;;;;1.25;0.75;;;;;7.51;66.19;99692.91;5025342;28;10511;-66
2023/01/15 02:21:38;;;;;;;;;0.00;0.00;;;;;7.50;66.51;99683.25;5029086;28;10487;-65
2023/01/15 02:24:35;;;;;;;;;3.00;0.00;;;;;7.48;66.16;99688.78;5026893;28;10463;-66
2023/01/15 02:27:07;;;;;;;;;1.00;0.25;;;;;7.49;66.08;99686.91;5025019;28;10665;-67
2023/01/15 02:29:50;;;;;;;;;0.00;0.00;;;;;7.47;65.72;99681.78;5045695;28;10565;-67
2023/01/15 02:32:48;;;;;;;;;1.00;1.00;;;;;7.41;66.32;99678.06;5022296;28;10664;-68
2023/01/15 02:35:49;;;;;;;;;0.75;0.75;;;;;7.42;65.86;99677.03;5017114;28;11732;-67
2023/01/15 02:38:20;;;;;;;;;2.00;1.00;;;;;7.43;66.21;99681.34;5016141;28;10674;-68
2023/01/15 02:40:55;;;;;;;;;3.50;1.25;;;;;7.48;66.03;99679.94;5043936;28;10584;-68
2023/01/15 02:43:26;;;;;;;;;0.50;0.00;;;;;7.52;65.55;99673.13;5012485;28;10512;-67
2023/01/15 02:45:56;;;;;;;;;1.50;0.25;;;;;7.34;65.60;99669.19;5025796;28;10520;-68
2023/01/15 02:48:28;;;;;;;;;0.00;0.00;;;;;7.43;65.72;99672.50;5025390;28;10592;-68
2023/01/15 02:51:06;;;;;;;;;0.75;0.00;;;;;7.39;66.05;99676.63;5019233;28;10656;-67
2023/01/15 02:53:36;;;;;;;;;0.00;0.00;;;;;7.31;65.49;99669.59;5021990;28;10584;-69
2023/01/15 02:56:08;;;;;;;;;0.25;0.25;;;;;7.30;65.46;99667.13;5027300;28;10545;-69
2023/01/15 02:58:44;;;;;;;;;1.00;0.00;;;;;7.31;65.83;99661.56;5012205;28;10519;-69
2023/01/15 03:01:20;;;;;;;;;1.00;0.00;;;;;7.31;65.34;99663.41;5037513;28;10659;-67
2023/01/15 03:04:09;;;;;;;;;0.00;0.00;;;;;7.31;65.62;99658.06;5030470;28;10565;-67
2023/01/15 03:07:11;;;;;;;;;0.00;0.00;;;;;7.25;66.26;99665.06;5028998;28;10742;-68
2023/01/15 03:09:37;;;;;;;;;0.50;0.00;;;;;7.22;65.93;99659.28;5006654;28;10444;-67
2023/01/15 03:12:15;;;;;;;;;0.75;0.75;;;;;7.24;66.17;99654.53;5030176;28;10657;-66
2023/01/15 03:15:09;;;;;;;;;4.25;0.00;;;;;7.21;66.01;99652.25;5040989;28;10682;-65
2023/01/15 03:17:49;;;;;;;;;0.00;0.00;;;;;7.25;66.38;99658.84;5023778;28;10669;-65
2023/01/15 03:20:24;;;;;;;;;5.50;1.00;;;;;7.29;65.83;99665.44;5012345;28;10502;-67
2023/01/15 03:22:55;;;;;;;;;2.00;0.50;;;;;7.17;65.06;99663.38;5011809;28;10718;-67
2023/01/15 03:25:26;;;;;;;;;0.00;0.00;;;;;7.14;65.88;99663.78;5041338;28;10434;-68
2023/01/15 03:27:58;;;;;;;;;1.00;0.00;;;;;7.14;65.26;99650.41;5030523;28;10583;-68
2023/01/15 03:30:26;;;;;;;;;1.00;0.75;;;;;7.21;65.43;99654.94;5031004;28;10479;-67
2023/01/15 03:32:53;;;;;;;;;2.75;0.75;;;;;7.24;65.28;99654.53;5026316;28;10460;-68
2023/01/15 03:35:46;;;;;;;;;1.00;0.50;;;;;7.18;64.93;99648.97;5035604;28;10517;-68
2023/01/15 03:38:26;;;;;;;;;0.25;0.00;;;;;7.15;64.63;99648.53;5010427;28;10522;-66
2023/01/15 03:41:06;;;;;;;;;1.00;0.00;;;;;7.11;65.94;99647.28;5028578;28;10544;-67
2023/01/15 03:43:52;;;;;;;;;0.50;0.50;;;;;7.16;65.41;99656.34;5036896;28;10585;-69
2023/01/15 03:46:56;;;;;;;;;1.00;0.00;;;;;7.14;65.76;99647.72;5025495;28;10533;-69
2023/01/15 03:49:32;;;;;;;;;1.00;0.00;;;;;7.12;65.36;99646.25;5042748;28;10503;-69
2023/01/15 03:52:15;;;;;;;;;0.00;0.00;;;;;7.14;65.02;99644.22;5029646;28;10519;-68
2023/01/15 03:55:11;;;;;;;;;1.00;1.00;;;;;7.16;65.36;99645.66;5030869;28;10576;-68
2023/01/15 03:57:47;;;;;;;;;0.00;0.00;;;;;7.18;66.05;99640.94;5015628;28;10620;-68
2023/01/15 04:00:25;;;;;;;;;0.00;0.00;;;;;7.08;65.47;99642.34;5026413;28;10443;-68
2023/01/15 04:02:58;;;;;;;;;0.00;0.00;;;;;7.10;65.84;99642.97;5018206;28;10451;-67
2023/01/15 04:05:30;;;;;;;;;1.25;0.00;;;;;7.07;65.24;99638.84;5027285;28;11217;-67
2023/01/15 04:07:58;;;;;;;;;1.25;1.25;;;;;7.11;65.68;99645.44;5028285;28;10670;-67
2023/01/15 04:10:26;;;;;;;;;1.00;0.25;;;;;7.18;65.55;99640.13;5027036;28;10587;-68
2023/01/15 04:12:55;;;;;;;;;5.25;0.75;;;;;7.16;65.52;99637.63;5026101;28;10605;-66
2023/01/15 04:15:21;;;;;;;;;4.50;1.00;;;;;7.12;65.04;99643.59;5022439;28;10557;-67
2023/01/15 04:17:48;;;;;;;;;0.00;0.00;;;;;7.26;68.16;99628.41;5021988;28;10602;-67
2023/01/15 04:20:15;;;;;;;;;2.00;0.75;;;;;7.29;66.21;99649.38;5030732;28;10639;-67
2023/01/15 04:22:43;;;;;;;;;0.75;0.75;;;;;7.24;65.97;99641.97;5046393;28;11369;-66
2023/01/15 04:25:09;;;;;;;;;1.00;1.00;;;;;7.23;66.36;99640.31;5028761;28;10499;-67
2023/01/15 04:27:36;;;;;;;;;0.00;0.00;;;;;7.15;65.73;99637.84;5030642;28;10675;-67
2023/01/15 04:30:02;;;;;;;;;0.75;0.75;;;;;7.11;64.85;99632.06;5040416;28;10607;-67
2023/01/15 04:32:29;;;;;;;;;0.25;0.25;;;;;7.13;64.99;99635.38;5019598;28;10689;-67
2023/01/15 04:34:55;;;;;;;;;0.25;0.25;;;;;7.22;64.88;99652.06;5013208;28;10455;-67
2023/01/15 04:37:22;;;;;;;;;1.75;1.00;;;;;7.18;64.61;99640.94;5010463;28;10607;-68
2023/01/15 04:39:48;;;;;;;;;0.00;0.00;;;;;7.22;65.53;99649.38;5021619;28;11402;-67
2023/01/15 04:44:59;;;;;;;;;0.00;0.00;;;;;7.09;64.73;99634.13;5035811;28;11336;-69
2023/01/15 04:47:29;;;;;;;;;1.00;1.00;;;;;7.06;64.85;99636.38;5019148;28;10681;-69
2023/01/15 04:49:55;;;;;;;;;0.00;0.00;;;;;7.13;65.08;99635.38;5023207;28;10784;-69
2023/01/15 04:52:22;;;;;;;;;0.25;0.25;;;;;7.08;65.39;99640.47;5020673;28;10701;-66
2023/01/15 04:54:48;;;;;;;;;2.00;2.00;;;;;7.11;65.46;99633.91;5018062;28;10615;-68
2023/01/15 04:57:14;;;;;;;;;0.00;0.00;;;;;7.12;65.37;99623.00;5021807;28;11371;-68
2023/01/15 04:59:41;;;;;;;;;0.00;0.00;;;;;7.14;65.57;99625.50;5011963;28;10672;-68
2023/01/15 05:02:07;;;;;;;;;0.00;0.00;;;;;7.00;64.82;99631.81;5012921;28;10643;-69
2023/01/15 05:04:34;;;;;;;;;1.00;1.00;;;;;7.00;64.57;99632.63;5026447;28;10576;-68
2023/01/15 05:07:04;;;;;;;;;4.50;0.00;;;;;6.98;64.44;99631.19;5021336;28;10671;-68
2023/01/15 05:09:31;;;;;;;;;0.00;0.00;;;;;6.92;64.60;99622.94;5029222;28;10802;-67
2023/01/15 05:11:58;;;;;;;;;0.00;0.00;;;;;6.96;64.21;99617.19;5024498;28;11456;-68
2023/01/15 05:14:24;;;;;;;;;0.00;0.00;;;;;6.89;63.78;99618.00;5018929;28;10549;-69
2023/01/15 05:16:51;;;;;;;;;0.50;0.50;;;;;6.85;62.99;99623.97;5010195;28;10558;-68
2023/01/15 05:19:17;;;;;;;;;0.00;0.00;;;;;6.89;63.50;99617.19;5021657;28;10664;-68
2023/01/15 05:21:44;;;;;;;;;1.00;0.00;;;;;6.98;62.98;99612.47;5029954;28;10685;-67
2023/01/15 05:24:13;;;;;;;;;0.00;0.00;;;;;6.90;62.83;99608.13;5025623;28;10678;-66
2023/01/15 05:26:40;;;;;;;;;3.50;1.00;;;;;6.99;62.40;99611.44;5023967;28;10678;-66
2023/01/15 05:29:07;;;;;;;;;0.75;0.75;;;;;6.83;62.49;99608.09;5015100;28;10732;-66
2023/01/15 05:31:33;;;;;;;;;0.00;0.00;;;;;6.77;62.68;99613.44;5013965;28;10765;-68
2023/01/15 05:34:00;;;;;;;;;0.00;0.00;;;;;6.83;63.00;99609.94;5039730;28;10805;-66
2023/01/15 05:36:29;;;;;;;;;1.00;1.00;;;;;6.78;61.73;99621.25;5029770;28;11601;-68
2023/01/15 05:39:00;;;;;;;;;0.75;0.00;;;;;6.73;61.72;99615.69;5026568;28;10659;-68
2023/01/15 05:44:22;;;;;;;;;2.00;1.00;;;;;6.80;61.15;99619.19;5016916;28;10757;-68
2023/01/15 05:46:50;;;;;;;;;2.00;0.25;;;;;6.81;61.41;99604.81;5017408;28;10786;-68
2023/01/15 05:49:20;;;;;;;;;0.00;0.00;;;;;6.79;60.78;99609.50;5019520;28;11301;-68
2023/01/15 05:51:48;;;;;;;;;1.50;0.00;;;;;6.68;60.11;99613.59;5026166;28;11319;-68
2023/01/15 05:54:20;;;;;;;;;1.50;0.75;;;;;6.73;59.67;99613.00;5025924;28;10764;-66
2023/01/15 05:56:48;;;;;;;;;0.00;0.00;;;;;6.74;59.26;99611.16;5031776;28;10730;-67
2023/01/15 05:59:16;;;;;;;;;1.25;0.00;;;;;6.73;59.93;99623.69;5026411;28;10567;-67
2023/01/15 06:01:43;;;;;;;;;0.00;0.00;;;;;6.76;59.90;99625.94;5024849;28;10743;-67
2023/01/15 06:04:13;;;;;;;;;0.00;0.00;;;;;6.66;60.38;99630.88;5032742;28;11432;-66
2023/01/15 06:06:40;;;;;;;;;0.00;0.00;;;;;6.65;61.01;99637.25;5044117;28;11389;-65
2023/01/15 06:09:07;;;;;;;;;1.00;0.50;;;;;6.64;60.39;99633.75;5018081;28;11022;-66
2023/01/15 06:11:33;;;;;;;;;3.00;0.00;;;;;6.59;60.69;99638.84;5013398;28;10717;-66
2023/01/15 06:14:00;;;;;;;;;0.25;0.25;;;;;6.59;61.29;99621.97;5019648;28;10956;-66
2023/01/15 06:16:26;;;;;;;;;2.00;2.00;;;;;6.50;60.21;99621.31;5020888;28;12084;-69
2023/01/15 06:18:53;;;;;;;;;0.00;0.00;;;;;6.52;60.48;99634.47;5026735;28;10839;-67
2023/01/15 06:21:20;;;;;;;;;1.00;0.00;;;;;6.50;60.86;99637.34;5032295;28;10808;-65
2023/01/15 06:23:46;;;;;;;;;0.50;0.00;;;;;6.43;60.13;99631.97;5024391;28;10822;-68
2023/01/15 06:26:16;;;;;;;;;0.50;0.50;;;;;6.43;60.30;99623.94;5032790;28;10919;-68
2023/01/15 06:28:43;;;;;;;;;1.00;0.00;;;;;6.43;60.44;99631.97;5030059;28;10829;-68
2023/01/15 06:31:13;;;;;;;;;4.00;1.00;;;;;6.41;60.31;99628.69;5016983;28;10722;-69
2023/01/15 06:33:40;;;;;;;;;0.00;0.00;;;;;6.43;60.02;99628.47;5036170;28;10793;-67
2023/01/15 06:36:09;;;;;;;;;0.25;0.00;;;;;6.46;60.47;99627.25;5024404;28;10737;-68
2023/01/15 06:38:37;;;;;;;;;0.00;0.00;;;;;6.43;59.96;99631.97;5030810;28;10792;-68
2023/01/15 06:47:19;;;;;;;;;0.00;0.00;;;;;6.50;60.38;99632.00;5032554;28;10803;-66
2023/01/15 06:49:30;;;;;;;;;0.00;0.00;;;;;6.29;59.75;99621.41;5021869;28;10721;-68
2023/01/15 06:51:56;;;;;;;;;0.00;0.00;;;;;6.29;60.22;99632.09;5029771;28;10826;-67
2023/01/15 06:54:22;;;;;;;;;1.50;0.00;;;;;6.29;60.02;99629.44;5031542;28;11461;-68
2023/01/15 06:56:49;;;;;;;;;0.00;0.00;;;;;6.32;59.72;99612.97;5032365;28;11602;-69
2023/01/15 06:59:16;;;;;;;;;1.00;0.00;;;;;6.38;60.17;99617.56;5028930;28;10713;-68
2023/01/15 07:01:43;;;;;;;;;0.00;0.00;;;;;6.44;59.81;99630.97;5018053;28;11013;-68
2023/01/15 07:04:10;;;;;;;;;0.25;0.25;;;;;6.42;60.67;99627.66;5024134;28;10725;-69
2023/01/15 07:06:36;;;;;;;;;2.00;2.00;;;;;6.29;61.02;99630.25;5031685;28;10650;-67
2023/01/15 07:09:03;;;;;;;;;1.00;0.00;;;;;6.33;60.97;99620.81;5030833;28;10790;-68
2023/01/15 07:11:29;;;;;;;;;1.00;0.25;;;;;6.36;61.14;99624.91;5023486;28;10783;-69
2023/01/15 07:14:05;;;;;;;;;3.00;1.00;;;;;6.44;61.54;99622.09;5025809;28;10868;-67
2023/01/15 07:16:33;;;;;;;;;1.00;1.00;;;;;6.38;61.46;99621.03;5022604;28;10855;-69
2023/01/15 07:19:00;;;;;;;;;0.25;0.25;;;;;6.35;61.56;99610.75;5023452;28;10816;-69
2023/01/15 07:21:27;;;;;;;;;0.00;0.00;;;;;6.39;61.91;99620.00;5018739;28;10887;-69
2023/01/15 07:23:57;;;;;;;;;0.00;0.00;;;;;6.39;61.87;99605.81;5022957;28;10786;-66
2023/01/15 07:26:23;;;;;;;;;1.00;0.00;;;;;6.34;61.34;99587.72;5030836;28;10819;-67
2023/01/15 07:28:50;;;;;;;;;0.00;0.00;;;;;6.32;61.39;99602.28;5028442;28;10692;-67
2023/01/15 07:31:16;;;;;;;;;0.25;0.25;;;;;6.33;61.32;99594.09;5024222;28;10779;-67
2023/01/15 07:33:43;;;;;;;;;1.00;0.00;;;;;6.59;67.75;99584.53;5013433;28;10831;-68
2023/01/15 07:36:09;;;;;;;;;1.50;0.00;;;;;6.63;62.38;99575.09;5022609;28;10644;-68
2023/01/15 07:38:36;;;;;;;;;0.00;0.00;;;;;6.58;61.04;99565.00;5021788;28;10939;-67
2023/01/15 07:52:06;;;;;;;;;0.00;0.00;;;;;6.35;64.93;99570.66;5017406;28;10730;-65
2023/01/15 07:54:33;;;;;;;;;0.00;0.00;;;;;6.39;65.22;99587.13;5021150;28;10960;-64
2023/01/15 07:56:59;;;;;;;;;3.00;1.75;;;;;6.44;65.63;99566.81;5023452;28;10914;-66
2023/01/15 07:59:26;;;;;;;;;0.00;0.00;;;;;6.40;66.04;99586.09;5026938;28;10867;-65
2023/01/15 08:01:52;;;;;;;;;4.00;0.00;;;;;6.41;65.45;99585.09;5022393;28;10845;-68
2023/01/15 08:04:19;;;;;;;;;0.00;0.00;;;;;6.28;65.48;99579.66;5022769;28;10778;-69
2023/01/15 08:06:46;;;;;;;;;0.00;0.00;;;;;6.25;65.25;99572.06;5026459;28;10826;-68
2023/01/15 08:09:12;;;;;;;;;0.00;0.00;;;;;6.21;65.52;99598.34;5022053;28;10889;-65
2023/01/15 08:17:09;;;;;;;;;2.00;0.00;;;;;6.25;66.95;99580.06;5016743;28;10810;-67
2023/01/15 08:19:35;;;;;;;;;3.00;1.00;;;;;6.37;66.40;99590.00;5027809;28;10879;-66
2023/01/15 08:22:02;;;;;;;;;0.00;0.00;;;;;6.47;67.07;99602.16;5011158;28;10958;-66
2023/01/15 08:24:28;;;;;;;;;0.00;0.00;;;;;6.41;67.43;99585.09;5018245;28;10875;-65
2023/01/15 08:26:55;;;;;;;;;0.00;0.00;;;;;6.44;67.40;99577.50;5039948;28;11460;-65
2023/01/15 08:29:22;;;;;;;;;1.00;1.00;;;;;6.48;67.30;99598.47;5037585;28;10802;-66
2023/01/15 08:31:48;;;;;;;;;0.00;0.00;;;;;6.58;66.66;99593.59;5019831;28;11062;-64
2023/01/15 08:34:14;;;;;;;;;1.50;0.00;;;;;6.46;65.91;99579.97;5025144;28;10582;-67
2023/01/15 08:36:41;;;;;;;;;0.75;0.75;;;;;6.41;66.21;99593.94;5017331;28;10871;-67
2023/01/15 08:39:07;;;;;;;;;0.00;0.00;;;;;6.40;66.99;99589.63;5027861;28;11491;-65
2023/01/15 08:41:34;;;;;;;;;0.00;0.00;;;;;6.46;67.46;99582.63;5020227;28;10827;-66
2023/01/15 08:44:01;;;;;;;;;0.25;0.00;;;;;6.42;67.77;99592.06;5013699;28;10750;-66
2023/01/15 08:46:27;;;;;;;;;1.00;1.00;;;;;6.41;67.62;99580.56;5022090;28;10691;-66
2023/01/15 08:48:53;;;;;;;;;0.00;0.00;;;;;6.34;68.65;99587.72;5021909;28;10740;-66
2023/01/15 08:51:20;;;;;;;;;4.00;0.00;;;;;6.30;67.77;99593.66;5030156;28;10713;-66
2023/01/15 08:53:46;;;;;;;;;0.00;0.00;;;;;6.30;68.08;99573.09;5028575;28;10997;-65
2023/01/15 08:56:18;;;;;;;;;0.00;0.00;;;;;6.32;68.19;99584.44;5018208;28;10822;-67
2023/01/15 08:58:46;;;;;;;;;2.00;0.00;;;;;6.36;68.40;99580.34;5013108;28;10881;-70
2023/01/15 09:01:15;;;;;;;;;0.00;0.00;;;;;6.34;68.00;99585.03;5022297;28;10835;-69
2023/01/15 09:03:42;;;;;;;;;1.00;0.00;;;;;6.41;68.84;99569.88;5018993;28;10931;-69
2023/01/15 09:06:10;;;;;;;;;0.75;0.00;;;;;6.42;68.53;99581.38;5013301;28;10905;-65
2023/01/15 09:08:36;;;;;;;;;0.00;0.00;;;;;6.32;69.14;99599.63;5019060;28;10887;-64
2023/01/15 09:11:04;;;;;;;;;0.00;0.00;;;;;6.28;69.98;99580.50;5021912;28;10991;-66
2023/01/15 09:13:31;;;;;;;;;0.00;0.00;;;;;6.28;70.42;99596.53;5028898;28;10721;-67
2023/01/15 09:16:02;;;;;;;;;1.00;0.00;;;;;6.34;70.72;99586.91;5024628;28;10752;-67
2023/01/15 09:18:29;;;;;;;;;1.00;1.00;;;;;6.37;70.61;99595.34;5014618;28;11524;-70
2023/01/15 09:20:56;;;;;;;;;0.00;0.00;;;;;6.34;70.38;99593.06;5022760;28;10887;-68
2023/01/15 09:23:23;;;;;;;;;1.75;0.00;;;;;6.24;69.94;99583.75;5022223;28;10868;-69
2023/01/15 09:25:54;;;;;;;;;0.00;0.00;;;;;6.32;70.00;99583.56;5033731;28;10861;-68
2023/01/15 09:28:21;;;;;;;;;1.75;1.75;;;;;6.43;70.29;99583.03;5028645;28;11007;-68
2023/01/15 09:30:49;;;;;;;;;0.00;0.00;;;;;6.46;70.02;99597.84;5026959;28;10713;-66
2023/01/15 09:33:15;;;;;;;;;0.50;0.00;;;;;6.39;69.38;99600.47;5026786;28;10868;-68
2023/01/15 09:35:42;;;;;;;;;2.00;1.00;;;;;6.39;70.00;99611.19;5028973;28;10773;-68
2023/01/15 09:38:13;;;;;;;;;0.00;0.00;;;;;6.49;69.81;99605.50;5031153;28;10863;-68
2023/01/15 09:40:48;;;;;;;;;0.25;0.00;;;;;6.58;70.05;99591.75;5029986;28;10732;-69
2023/01/15 09:43:49;;;;;;;;;2.00;2.00;;;;;6.52;69.89;99597.03;5025453;28;10913;-69
2023/01/15 09:46:24;;;;;;;;;3.50;1.00;;;;;6.54;70.54;99622.56;5013373;28;10746;-67
2023/01/15 09:49:21;;;;;;;;;0.25;0.25;;;;;6.50;69.95;99599.09;5017209;28;10674;-67
2023/01/15 09:52:12;;;;;;;;;1.50;1.50;;;;;6.46;69.82;99592.50;5027610;28;10750;-67
2023/01/15 09:54:52;;;;;;;;;1.00;0.50;;;;;6.50;69.63;99602.59;5031515;28;10722;-66
2023/01/15 09:57:22;;;;;;;;;0.00;0.00;;;;;6.49;70.16;99600.13;5022526;28;12749;-65
2023/01/15 09:59:51;;;;;;;;;1.25;0.25;;;;;6.57;69.92;99610.66;5020432;28;10930;-66
2023/01/15 10:02:39;;;;;;;;;0.00;0.00;;;;;6.71;69.89;99620.38;5016315;28;10758;-69
2023/01/15 10:05:27;;;;;;;;;1.00;0.00;;;;;6.75;69.56;99612.78;5019132;28;10734;-70
2023/01/15 10:08:16;;;;;;;;;1.00;1.00;;;;;6.79;69.74;99622.06;5024211;28;12808;-69
2023/01/15 10:10:51;;;;;;;;;1.00;1.00;;;;;6.73;69.39;99612.19;5022031;28;10730;-68
2023/01/15 10:13:29;;;;;;;;;4.75;2.50;;;;;6.66;69.65;99614.81;5033181;28;10713;-69
2023/01/15 10:15:56;;;;;;;;;0.00;0.00;;;;;6.72;69.67;99613.19;5023332;28;10743;-67
2023/01/15 10:18:25;;;;;;;;;7.00;2.00;;;;;6.71;69.72;99598.16;5023988;28;10595;-69
2023/01/15 10:21:04;;;;;;;;;2.50;0.00;;;;;6.70;68.96;99618.75;5032492;28;10585;-69
2023/01/15 10:24:05;;;;;;;;;0.00;0.00;;;;;6.84;69.59;99620.44;5032356;28;10591;-68
2023/01/15 10:26:38;;;;;;;;;1.00;1.00;;;;;6.91;68.98;99618.63;5031969;28;10714;-68
2023/01/15 10:29:35;;;;;;;;;4.00;0.00;;;;;6.98;68.95;99610.63;5030055;28;10552;-68
2023/01/15 10:32:17;;;;;;;;;1.00;0.00;;;;;7.04;67.98;99608.97;5032381;28;10582;-68
2023/01/15 10:35:03;;;;;;;;;0.00;0.00;;;;;7.08;68.06;99603.03;5031404;28;11421;-68
2023/01/15 10:37:40;;;;;;;;;0.00;0.00;;;;;7.04;67.46;99622.34;5032804;28;10682;-68
2023/01/15 10:40:25;;;;;;;;;0.00;0.00;;;;;7.05;67.64;99624.84;5028608;28;10522;-66
2023/01/15 10:43:13;;;;;;;;;3.50;2.25;;;;;7.01;66.79;99622.75;5027303;28;10604;-66
2023/01/15 10:45:51;;;;;;;;;1.50;0.25;;;;;6.96;66.51;99612.66;5029350;28;10950;-65
2023/01/15 10:48:26;;;;;;;;;1.00;1.00;;;;;6.95;66.49;99635.09;5047939;28;10658;-65
2023/01/15 10:50:54;;;;;;;;;1.00;1.00;;;;;6.93;67.16;99631.81;5032136;28;10651;-64
2023/01/15 10:53:35;;;;;;;;;0.00;0.00;;;;;6.92;66.27;99633.63;5025584;28;10782;-65
2023/01/15 10:56:43;;;;;;;;;0.00;0.00;;;;;6.98;66.25;99628.53;5012619;28;10507;-67
2023/01/15 10:59:20;;;;;;;;;0.00;0.00;;;;;6.99;66.41;99622.13;5004997;28;10621;-65
2023/01/15 11:01:52;;;;;;;;;1.00;0.50;;;;;6.96;66.74;99630.56;5029921;28;10752;-66
2023/01/15 11:04:20;;;;;;;;;0.75;0.75;;;;;6.87;67.57;99621.88;5030239;28;11287;-68
2023/01/15 11:06:46;;;;;;;;;0.00;0.00;;;;;6.92;67.09;99644.34;5042913;28;10812;-67
2023/01/15 11:09:35;;;;;;;;;9.25;9.00;;;;;6.88;68.00;99637.72;5016793;28;10543;-67
2023/01/15 11:20:54;;;;;;;;;0.50;0.00;;;;;6.94;68.31;99618.22;5027515;28;10581;-68
2023/01/15 11:23:22;;;;;;;;;0.00;0.00;;;;;6.95;68.49;99621.72;5022903;28;10389;-67
2023/01/15 11:25:55;;;;;;;;;0.00;0.00;;;;;7.02;68.33;99630.59;5030122;28;11449;-67
2023/01/15 11:28:35;;;;;;;;;0.75;0.75;;;;;7.05;68.27;99624.00;5037606;28;10584;-68
2023/01/15 11:31:02;;;;;;;;;1.00;1.00;;;;;6.98;68.20;99640.06;5021764;28;10521;-68
2023/01/15 11:33:30;;;;;;;;;0.75;0.75;;;;;7.02;68.86;99624.41;5031217;28;10570;-69
2023/01/15 11:36:03;;;;;;;;;1.75;1.00;;;;;7.04;69.23;99630.38;5028702;28;10719;-65
2023/01/15 11:38:42;;;;;;;;;0.75;0.75;;;;;7.05;69.41;99621.31;5024700;28;10680;-66
2023/01/15 11:41:19;;;;;;;;;1.00;1.00;;;;;7.03;69.10;99618.84;5039537;28;10714;-66
2023/01/15 11:52:21;;;;;;;;;0.25;0.00;;;;;7.13;67.58;99624.66;5024191;28;11465;-66
2023/01/15 11:54:52;;;;;;;;;1.75;0.25;;;;;7.15;67.82;99624.47;5012836;28;10643;-66
2023/01/15 11:57:26;;;;;;;;;0.50;0.00;;;;;7.04;67.67;99635.72;5021165;28;10587;-68
2023/01/15 11:59:52;;;;;;;;;0.00;0.00;;;;;7.02;67.06;99619.06;5015570;28;10653;-68
2023/01/15 12:02:41;;;;;;;;;2.50;0.00;;;;;7.07;66.97;99621.97;5019566;28;10591;-68
2023/01/15 12:05:16;;;;;;;;;2.00;1.00;;;;;7.05;67.09;99616.81;5025617;28;10496;-68
2023/01/15 12:07:43;;;;;;;;;0.00;0.00;;;;;7.05;67.95;99630.19;5024504;28;10739;-67
2023/01/15 12:11:02;;;;;;;;;0.00;0.00;;;;;7.07;67.45;99619.28;5017284;28;10664;-69
2023/01/15 12:13:37;;;;;;;;;3.25;0.00;;;;;7.09;67.88;99619.91;5019489;28;10664;-69
2023/01/15 12:16:20;;;;;;;;;1.00;1.00;;;;;7.08;67.77;99623.59;5018291;28;10832;-69
2023/01/15 12:19:18;;;;;;;;;0.00;0.00;;;;;7.12;68.27;99635.56;5019090;28;10665;-68
2023/01/15 12:22:12;;;;;;;;;0.00;0.00;;;;;7.19;67.78;99629.19;5021696;28;10814;-67
2023/01/15 12:24:57;;;;;;;;;1.75;0.75;;;;;7.25;67.26;99632.09;5019438;28;10661;-67
2023/01/15 12:27:40;;;;;;;;;3.50;0.75;;;;;7.29;67.52;99644.03;5011831;28;10795;-69
2023/01/15 12:30:20;;;;;;;;;0.00;0.00;;;;;7.41;67.47;99637.91;5024317;28;10595;-68
2023/01/15 12:33:12;;;;;;;;;2.50;1.00;;;;;7.34;67.55;99645.09;5030385;28;10648;-65
2023/01/15 12:35:46;;;;;;;;;0.75;0.00;;;;;7.27;67.22;99635.41;5025542;28;10592;-67
2023/01/15 12:38:24;;;;;;;;;2.25;0.25;;;;;7.31;66.71;99642.00;5023675;28;10617;-65
2023/01/15 12:40:55;;;;;;;;;0.75;0.50;;;;;7.30;67.02;99626.97;5029081;28;10590;-65
2023/01/15 12:46:27;;;;;;;;;4.00;0.00;;;;;7.31;67.96;99621.41;5023149;28;10511;-66
2023/01/15 12:49:14;;;;;;;;;0.00;0.00;;;;;7.30;67.83;99630.47;5017917;28;10624;-67
2023/01/15 12:51:50;;;;;;;;;4.00;2.00;;;;;7.32;67.23;99623.03;5022179;28;10372;-66
2023/01/15 12:54:28;;;;;;;;;1.00;1.00;;;;;7.28;67.17;99623.66;5029818;28;10652;-67
2023/01/15 12:57:02;;;;;;;;;4.00;0.25;;;;;7.28;67.46;99618.31;5030862;28;10518;-66
2023/01/15 12:59:28;;;;;;;;;2.00;0.00;;;;;7.27;67.85;99622.84;5023011;28;10616;-69